sensor_id;sensor_type;location;lat;lon;timestamp;temperature;humidity
46364;DHT22;32071;49.036;9.344;2023-12-07T00:01:06;1.40;99.90
46364;DHT22;32071;49.036;9.344;2023-12-07T00:03:31;1.40;99.90
46364;DHT22;32071;49.036;9.344;2023-12-07T00:05:57;1.40;99.90
46364;DHT22;32071;49.036;9.344;2023-12-07T00:08:22;1.40;99.90
46364;DHT22;32071;49.036;9.344;2023-12-07T00:10:48;1.50;99.90
46364;DHT22;32071;49.036;9.344;2023-12-07T00:13:13;1.50;99.90
46364;DHT22;32071;49.036;9.344;2023-12-07T00:15:39;1.60;99.90
46364;DHT22;32071;49.036;9.344;2023-12-07T00:18:05;1.60;99.90
46364;DHT22;32071;49.036;9.344;2023-12-07T00:20:31;1.60;99.90
46364;DHT22;32071;49.036;9.344;2023-12-07T00:22:56;1.60;99.90
46364;DHT22;32071;49.036;9.344;2023-12-07T00:35:27;1.60;99.90
46364;DHT22;32071;49.036;9.344;2023-12-07T00:37:57;1.60;99.90
46364;DHT22;32071;49.036;9.344;2023-12-07T00:40:23;1.60;99.90
46364;DHT22;32071;49.036;9.344;2023-12-07T00:42:49;1.60;99.90
46364;DHT22;32071;49.036;9.344;2023-12-07T00:45:15;1.60;99.90
46364;DHT22;32071;49.036;9.344;2023-12-07T00:47:40;1.60;99.90
46364;DHT22;32071;49.036;9.344;2023-12-07T00:50:06;1.60;99.90
46364;DHT22;32071;49.036;9.344;2023-12-07T00:52:32;1.50;99.90
46364;DHT22;32071;49.036;9.344;2023-12-07T00:54:57;1.60;99.90
46364;DHT22;32071;49.036;9.344;2023-12-07T00:57:23;1.50;99.90
46364;DHT22;32071;49.036;9.344;2023-12-07T00:59:48;1.50;99.90
46364;DHT22;32071;49.036;9.344;2023-12-07T01:02:14;1.50;99.90
46364;DHT22;32071;49.036;9.344;2023-12-07T01:04:40;1.50;99.90
46364;DHT22;32071;49.036;9.344;2023-12-07T01:07:05;1.50;99.90
46364;DHT22;32071;49.036;9.344;2023-12-07T01:09:31;1.50;99.90
46364;DHT22;32071;49.036;9.344;2023-12-07T01:11:56;1.50;99.90
46364;DHT22;32071;49.036;9.344;2023-12-07T01:14:23;1.50;99.90
46364;DHT22;32071;49.036;9.344;2023-12-07T01:16:49;1.50;99.90
46364;DHT22;32071;49.036;9.344;2023-12-07T01:19:15;1.60;99.90
46364;DHT22;32071;49.036;9.344;2023-12-07T01:21:41;1.60;99.90
46364;DHT22;32071;49.036;9.344;2023-12-07T01:24:07;1.60;99.90
46364;DHT22;32071;49.036;9.344;2023-12-07T01:26:33;1.60;99.90
46364;DHT22;32071;49.036;9.344;2023-12-07T01:28:59;1.60;99.90
46364;DHT22;32071;49.036;9.344;2023-12-07T01:31:24;1.60;99.90
46364;DHT22;32071;49.036;9.344;2023-12-07T01:33:50;1.60;99.90
46364;DHT22;32071;49.036;9.344;2023-12-07T01:36:15;1.60;99.90
46364;DHT22;32071;49.036;9.344;2023-12-07T01:38:41;1.70;99.90
46364;DHT22;32071;49.036;9.344;2023-12-07T01:41:07;1.70;99.90
46364;DHT22;32071;49.036;9.344;2023-12-07T01:43:33;1.60;99.90
46364;DHT22;32071;49.036;9.344;2023-12-07T01:45:59;1.60;99.90
46364;DHT22;32071;49.036;9.344;2023-12-07T01:48:26;1.50;99.90
46364;DHT22;32071;49.036;9.344;2023-12-07T01:50:54;1.60;99.90
46364;DHT22;32071;49.036;9.344;2023-12-07T01:53:22;1.50;99.90
46364;DHT22;32071;49.036;9.344;2023-12-07T01:55:49;1.50;99.90
46364;DHT22;32071;49.036;9.344;2023-12-07T01:58:17;1.40;99.90
46364;DHT22;32071;49.036;9.344;2023-12-07T02:00:43;1.40;99.90
46364;DHT22;32071;49.036;9.344;2023-12-07T02:03:09;1.30;99.90
46364;DHT22;32071;49.036;9.344;2023-12-07T02:05:35;1.30;99.90
46364;DHT22;32071;49.036;9.344;2023-12-07T02:08:02;1.30;99.90
46364;DHT22;32071;49.036;9.344;2023-12-07T02:10:27;1.30;99.90
46364;DHT22;32071;49.036;9.344;2023-12-07T02:12:53;1.20;99.90
46364;DHT22;32071;49.036;9.344;2023-12-07T02:15:20;1.20;99.90
46364;DHT22;32071;49.036;9.344;2023-12-07T02:17:53;1.10;99.90
46364;DHT22;32071;49.036;9.344;2023-12-07T02:20:28;1.10;99.90
46364;DHT22;32071;49.036;9.344;2023-12-07T02:22:59;1.00;99.90
46364;DHT22;32071;49.036;9.344;2023-12-07T02:25:31;1.00;99.90
46364;DHT22;32071;49.036;9.344;2023-12-07T02:27:57;0.90;99.90
46364;DHT22;32071;49.036;9.344;2023-12-07T02:30:23;0.90;99.90
46364;DHT22;32071;49.036;9.344;2023-12-07T02:32:48;0.90;99.90
46364;DHT22;32071;49.036;9.344;2023-12-07T02:35:14;0.80;99.90
46364;DHT22;32071;49.036;9.344;2023-12-07T02:37:46;0.70;99.90
46364;DHT22;32071;49.036;9.344;2023-12-07T02:40:17;0.60;99.90
46364;DHT22;32071;49.036;9.344;2023-12-07T02:42:43;0.60;99.90
46364;DHT22;32071;49.036;9.344;2023-12-07T02:45:10;0.60;99.90
46364;DHT22;32071;49.036;9.344;2023-12-07T02:47:36;0.50;99.90
46364;DHT22;32071;49.036;9.344;2023-12-07T02:50:04;0.50;99.90
46364;DHT22;32071;49.036;9.344;2023-12-07T02:52:31;0.40;99.90
46364;DHT22;32071;49.036;9.344;2023-12-07T02:54:56;0.40;99.90
46364;DHT22;32071;49.036;9.344;2023-12-07T02:57:22;0.40;99.90
46364;DHT22;32071;49.036;9.344;2023-12-07T02:59:48;0.40;99.90
46364;DHT22;32071;49.036;9.344;2023-12-07T03:02:13;0.30;99.90
46364;DHT22;32071;49.036;9.344;2023-12-07T03:04:39;0.30;99.90
46364;DHT22;32071;49.036;9.344;2023-12-07T03:07:04;0.30;99.90
46364;DHT22;32071;49.036;9.344;2023-12-07T03:09:30;0.30;99.90
46364;DHT22;32071;49.036;9.344;2023-12-07T03:11:56;0.30;99.90
46364;DHT22;32071;49.036;9.344;2023-12-07T03:14:21;0.30;99.90
46364;DHT22;32071;49.036;9.344;2023-12-07T03:16:47;0.20;99.90
46364;DHT22;32071;49.036;9.344;2023-12-07T03:19:12;0.20;99.90
46364;DHT22;32071;49.036;9.344;2023-12-07T03:21:42;0.20;99.90
46364;DHT22;32071;49.036;9.344;2023-12-07T03:24:08;0.10;99.90
46364;DHT22;32071;49.036;9.344;2023-12-07T03:26:34;0.10;99.90
46364;DHT22;32071;49.036;9.344;2023-12-07T03:29:00;0.10;99.90
46364;DHT22;32071;49.036;9.344;2023-12-07T03:31:27;0.10;99.90
46364;DHT22;32071;49.036;9.344;2023-12-07T03:33:53;0.10;99.90
46364;DHT22;32071;49.036;9.344;2023-12-07T03:36:18;0.10;99.90
46364;DHT22;32071;49.036;9.344;2023-12-07T03:38:44;0.10;99.90
46364;DHT22;32071;49.036;9.344;2023-12-07T03:41:09;0.10;99.90
46364;DHT22;32071;49.036;9.344;2023-12-07T03:43:35;0.10;99.90
46364;DHT22;32071;49.036;9.344;2023-12-07T03:46:04;0.10;99.90
46364;DHT22;32071;49.036;9.344;2023-12-07T03:48:30;0.00;99.90
46364;DHT22;32071;49.036;9.344;2023-12-07T03:50:56;0.00;99.90
46364;DHT22;32071;49.036;9.344;2023-12-07T03:53:21;-0.10;99.90
46364;DHT22;32071;49.036;9.344;2023-12-07T03:55:47;-0.10;99.90
46364;DHT22;32071;49.036;9.344;2023-12-07T03:58:12;-0.10;99.90
46364;DHT22;32071;49.036;9.344;2023-12-07T04:00:39;-0.10;99.90
46364;DHT22;32071;49.036;9.344;2023-12-07T04:03:04;-0.10;99.90
46364;DHT22;32071;49.036;9.344;2023-12-07T04:05:30;-0.10;99.90
46364;DHT22;32071;49.036;9.344;2023-12-07T04:07:55;-0.10;99.90
46364;DHT22;32071;49.036;9.344;2023-12-07T04:10:21;-0.20;99.90
46364;DHT22;32071;49.036;9.344;2023-12-07T04:12:47;-0.10;99.90
46364;DHT22;32071;49.036;9.344;2023-12-07T04:15:12;-0.10;99.90
46364;DHT22;32071;49.036;9.344;2023-12-07T04:17:38;-0.20;99.90
46364;DHT22;32071;49.036;9.344;2023-12-07T04:20:04;-0.20;99.90
46364;DHT22;32071;49.036;9.344;2023-12-07T04:22:30;-0.20;99.90
46364;DHT22;32071;49.036;9.344;2023-12-07T04:24:56;-0.20;99.90
46364;DHT22;32071;49.036;9.344;2023-12-07T04:27:22;-0.20;99.90
46364;DHT22;32071;49.036;9.344;2023-12-07T04:29:47;-0.20;99.90
46364;DHT22;32071;49.036;9.344;2023-12-07T04:32:13;-0.20;99.90
46364;DHT22;32071;49.036;9.344;2023-12-07T04:34:38;-0.20;99.90
46364;DHT22;32071;49.036;9.344;2023-12-07T04:37:04;-0.30;99.90
46364;DHT22;32071;49.036;9.344;2023-12-07T04:39:30;-0.30;99.90
46364;DHT22;32071;49.036;9.344;2023-12-07T04:41:55;-0.30;99.90
46364;DHT22;32071;49.036;9.344;2023-12-07T04:44:21;-0.30;99.90
46364;DHT22;32071;49.036;9.344;2023-12-07T04:46:46;-0.30;99.90
46364;DHT22;32071;49.036;9.344;2023-12-07T04:49:12;-0.30;99.90
46364;DHT22;32071;49.036;9.344;2023-12-07T04:51:39;-0.30;99.90
46364;DHT22;32071;49.036;9.344;2023-12-07T04:54:04;-0.30;99.90
46364;DHT22;32071;49.036;9.344;2023-12-07T04:56:30;-0.30;99.90
46364;DHT22;32071;49.036;9.344;2023-12-07T04:58:55;-0.30;99.90
46364;DHT22;32071;49.036;9.344;2023-12-07T05:01:21;-0.30;99.90
46364;DHT22;32071;49.036;9.344;2023-12-07T05:03:47;-0.40;99.90
46364;DHT22;32071;49.036;9.344;2023-12-07T05:06:12;-0.40;99.90
46364;DHT22;32071;49.036;9.344;2023-12-07T05:08:39;-0.40;99.90
46364;DHT22;32071;49.036;9.344;2023-12-07T05:11:05;-0.40;99.90
46364;DHT22;32071;49.036;9.344;2023-12-07T05:13:32;-0.40;99.90
46364;DHT22;32071;49.036;9.344;2023-12-07T05:15:59;-0.40;99.90
46364;DHT22;32071;49.036;9.344;2023-12-07T05:18:25;-0.30;99.90
46364;DHT22;32071;49.036;9.344;2023-12-07T05:20:50;-0.30;99.90
46364;DHT22;32071;49.036;9.344;2023-12-07T05:23:16;-0.30;99.90
46364;DHT22;32071;49.036;9.344;2023-12-07T05:25:43;-0.30;99.90
46364;DHT22;32071;49.036;9.344;2023-12-07T05:28:08;-0.30;99.90
46364;DHT22;32071;49.036;9.344;2023-12-07T05:30:35;-0.30;99.90
46364;DHT22;32071;49.036;9.344;2023-12-07T05:33:02;-0.40;99.90
46364;DHT22;32071;49.036;9.344;2023-12-07T05:35:28;-0.40;99.90
46364;DHT22;32071;49.036;9.344;2023-12-07T05:37:53;-0.40;99.90
46364;DHT22;32071;49.036;9.344;2023-12-07T05:40:19;-0.40;99.90
46364;DHT22;32071;49.036;9.344;2023-12-07T05:42:49;-0.40;99.90
46364;DHT22;32071;49.036;9.344;2023-12-07T05:45:14;-0.40;99.90
46364;DHT22;32071;49.036;9.344;2023-12-07T05:47:40;-0.30;99.90
46364;DHT22;32071;49.036;9.344;2023-12-07T05:50:06;-0.30;99.90
46364;DHT22;32071;49.036;9.344;2023-12-07T05:52:32;-0.30;99.90
46364;DHT22;32071;49.036;9.344;2023-12-07T05:54:57;-0.20;99.90
46364;DHT22;32071;49.036;9.344;2023-12-07T05:57:23;-0.20;99.90
46364;DHT22;32071;49.036;9.344;2023-12-07T05:59:48;-0.20;99.90
46364;DHT22;32071;49.036;9.344;2023-12-07T06:02:14;-0.20;99.90
46364;DHT22;32071;49.036;9.344;2023-12-07T06:04:40;-0.20;99.90
46364;DHT22;32071;49.036;9.344;2023-12-07T06:07:05;-0.20;99.90
46364;DHT22;32071;49.036;9.344;2023-12-07T06:09:31;-0.20;99.90
46364;DHT22;32071;49.036;9.344;2023-12-07T06:11:56;-0.20;99.90
46364;DHT22;32071;49.036;9.344;2023-12-07T06:14:22;-0.20;99.90
46364;DHT22;32071;49.036;9.344;2023-12-07T06:16:50;-0.20;99.90
46364;DHT22;32071;49.036;9.344;2023-12-07T06:19:16;-0.30;99.90
46364;DHT22;32071;49.036;9.344;2023-12-07T06:21:43;-0.30;99.90
46364;DHT22;32071;49.036;9.344;2023-12-07T06:24:09;-0.30;99.90
46364;DHT22;32071;49.036;9.344;2023-12-07T06:26:35;-0.30;99.90
46364;DHT22;32071;49.036;9.344;2023-12-07T06:29:01;-0.40;99.90
46364;DHT22;32071;49.036;9.344;2023-12-07T06:31:27;-0.40;99.90
46364;DHT22;32071;49.036;9.344;2023-12-07T06:33:52;-0.50;99.90
46364;DHT22;32071;49.036;9.344;2023-12-07T06:36:22;-0.40;99.90
46364;DHT22;32071;49.036;9.344;2023-12-07T06:38:49;-0.40;99.90
46364;DHT22;32071;49.036;9.344;2023-12-07T06:41:15;-0.50;99.90
46364;DHT22;32071;49.036;9.344;2023-12-07T06:43:41;-0.50;99.90
46364;DHT22;32071;49.036;9.344;2023-12-07T06:46:07;-0.60;99.90
46364;DHT22;32071;49.036;9.344;2023-12-07T06:48:33;-0.60;99.90
46364;DHT22;32071;49.036;9.344;2023-12-07T06:50:58;-0.60;99.90
46364;DHT22;32071;49.036;9.344;2023-12-07T06:53:24;-0.60;99.90
46364;DHT22;32071;49.036;9.344;2023-12-07T06:55:49;-0.60;99.90
46364;DHT22;32071;49.036;9.344;2023-12-07T06:58:15;-0.50;99.90
46364;DHT22;32071;49.036;9.344;2023-12-07T07:00:40;-0.50;99.90
46364;DHT22;32071;49.036;9.344;2023-12-07T07:03:06;-0.50;99.90
46364;DHT22;32071;49.036;9.344;2023-12-07T07:05:32;-0.40;99.90
46364;DHT22;32071;49.036;9.344;2023-12-07T07:07:57;-0.40;99.90
46364;DHT22;32071;49.036;9.344;2023-12-07T07:10:23;-0.30;99.90
46364;DHT22;32071;49.036;9.344;2023-12-07T07:12:50;-0.20;99.90
46364;DHT22;32071;49.036;9.344;2023-12-07T07:15:15;-0.20;99.90
46364;DHT22;32071;49.036;9.344;2023-12-07T07:17:41;-0.10;99.90
46364;DHT22;32071;49.036;9.344;2023-12-07T07:20:07;0.00;99.90
46364;DHT22;32071;49.036;9.344;2023-12-07T07:22:33;0.10;99.90
46364;DHT22;32071;49.036;9.344;2023-12-07T07:25:00;0.20;99.90
46364;DHT22;32071;49.036;9.344;2023-12-07T07:27:25;0.20;99.90
46364;DHT22;32071;49.036;9.344;2023-12-07T07:29:51;0.30;99.90
46364;DHT22;32071;49.036;9.344;2023-12-07T07:32:17;0.30;99.90
46364;DHT22;32071;49.036;9.344;2023-12-07T07:34:43;0.40;99.90
46364;DHT22;32071;49.036;9.344;2023-12-07T07:37:08;0.50;99.90
46364;DHT22;32071;49.036;9.344;2023-12-07T07:39:34;0.50;99.90
46364;DHT22;32071;49.036;9.344;2023-12-07T07:42:00;0.60;99.90
46364;DHT22;32071;49.036;9.344;2023-12-07T07:44:25;0.60;99.90
46364;DHT22;32071;49.036;9.344;2023-12-07T07:46:51;0.60;99.90
46364;DHT22;32071;49.036;9.344;2023-12-07T07:49:16;0.60;99.90
46364;DHT22;32071;49.036;9.344;2023-12-07T07:51:42;0.50;99.90
46364;DHT22;32071;49.036;9.344;2023-12-07T07:54:07;0.60;99.90
46364;DHT22;32071;49.036;9.344;2023-12-07T07:56:33;0.50;99.90
46364;DHT22;32071;49.036;9.344;2023-12-07T07:58:59;0.50;99.90
46364;DHT22;32071;49.036;9.344;2023-12-07T08:01:26;0.50;99.90
46364;DHT22;32071;49.036;9.344;2023-12-07T08:03:51;0.60;99.90
46364;DHT22;32071;49.036;9.344;2023-12-07T08:06:17;0.60;99.90
46364;DHT22;32071;49.036;9.344;2023-12-07T08:08:43;0.60;99.90
46364;DHT22;32071;49.036;9.344;2023-12-07T08:11:08;0.70;99.90
46364;DHT22;32071;49.036;9.344;2023-12-07T08:13:34;0.70;99.90
46364;DHT22;32071;49.036;9.344;2023-12-07T08:15:59;0.70;99.90
46364;DHT22;32071;49.036;9.344;2023-12-07T08:18:25;0.70;99.90
46364;DHT22;32071;49.036;9.344;2023-12-07T08:20:51;0.70;99.90
46364;DHT22;32071;49.036;9.344;2023-12-07T08:23:17;0.70;99.90
46364;DHT22;32071;49.036;9.344;2023-12-07T08:25:42;0.70;99.90
46364;DHT22;32071;49.036;9.344;2023-12-07T08:28:09;0.70;99.90
46364;DHT22;32071;49.036;9.344;2023-12-07T08:30:35;0.70;99.90
46364;DHT22;32071;49.036;9.344;2023-12-07T08:33:00;0.80;99.90
46364;DHT22;32071;49.036;9.344;2023-12-07T08:35:26;0.70;99.90
46364;DHT22;32071;49.036;9.344;2023-12-07T08:37:51;0.70;99.90
46364;DHT22;32071;49.036;9.344;2023-12-07T08:40:17;0.80;99.90
46364;DHT22;32071;49.036;9.344;2023-12-07T08:42:46;0.80;99.90
46364;DHT22;32071;49.036;9.344;2023-12-07T08:45:12;0.80;99.90
46364;DHT22;32071;49.036;9.344;2023-12-07T08:47:39;0.80;99.90
46364;DHT22;32071;49.036;9.344;2023-12-07T08:50:05;0.90;99.90
46364;DHT22;32071;49.036;9.344;2023-12-07T08:52:33;0.90;99.90
46364;DHT22;32071;49.036;9.344;2023-12-07T08:54:59;0.90;99.90
46364;DHT22;32071;49.036;9.344;2023-12-07T08:57:25;1.00;99.90
46364;DHT22;32071;49.036;9.344;2023-12-07T08:59:50;1.00;99.90
46364;DHT22;32071;49.036;9.344;2023-12-07T09:02:16;1.00;99.90
46364;DHT22;32071;49.036;9.344;2023-12-07T09:04:41;1.10;99.90
46364;DHT22;32071;49.036;9.344;2023-12-07T09:07:07;1.10;99.90
46364;DHT22;32071;49.036;9.344;2023-12-07T09:09:34;1.20;99.90
46364;DHT22;32071;49.036;9.344;2023-12-07T09:12:00;1.30;99.90
46364;DHT22;32071;49.036;9.344;2023-12-07T09:14:25;1.30;99.90
46364;DHT22;32071;49.036;9.344;2023-12-07T09:16:52;1.30;99.90
46364;DHT22;32071;49.036;9.344;2023-12-07T09:19:17;1.40;99.90
46364;DHT22;32071;49.036;9.344;2023-12-07T09:21:43;1.40;99.90
46364;DHT22;32071;49.036;9.344;2023-12-07T09:24:09;1.40;99.90
46364;DHT22;32071;49.036;9.344;2023-12-07T09:26:35;1.50;99.90
46364;DHT22;32071;49.036;9.344;2023-12-07T09:29:01;1.50;99.90
46364;DHT22;32071;49.036;9.344;2023-12-07T09:31:27;1.50;99.90
46364;DHT22;32071;49.036;9.344;2023-12-07T09:33:53;1.50;99.90
46364;DHT22;32071;49.036;9.344;2023-12-07T09:36:19;1.50;99.90
46364;DHT22;32071;49.036;9.344;2023-12-07T09:38:47;1.60;99.90
46364;DHT22;32071;49.036;9.344;2023-12-07T09:41:12;1.60;99.90
46364;DHT22;32071;49.036;9.344;2023-12-07T09:43:38;1.70;99.90
46364;DHT22;32071;49.036;9.344;2023-12-07T09:46:04;1.70;99.90
46364;DHT22;32071;49.036;9.344;2023-12-07T09:48:31;1.80;99.90
46364;DHT22;32071;49.036;9.344;2023-12-07T09:50:57;1.90;99.90
46364;DHT22;32071;49.036;9.344;2023-12-07T09:53:24;1.90;99.90
46364;DHT22;32071;49.036;9.344;2023-12-07T09:55:50;2.00;99.90
46364;DHT22;32071;49.036;9.344;2023-12-07T09:58:16;2.00;99.90
46364;DHT22;32071;49.036;9.344;2023-12-07T10:00:41;2.00;99.90
46364;DHT22;32071;49.036;9.344;2023-12-07T10:03:20;2.10;99.90
46364;DHT22;32071;49.036;9.344;2023-12-07T10:05:58;2.20;99.90
46364;DHT22;32071;49.036;9.344;2023-12-07T10:08:34;2.20;99.90
46364;DHT22;32071;49.036;9.344;2023-12-07T10:11:10;2.30;99.90
46364;DHT22;32071;49.036;9.344;2023-12-07T10:13:37;2.40;99.90
46364;DHT22;32071;49.036;9.344;2023-12-07T10:18:36;2.50;99.90
46364;DHT22;32071;49.036;9.344;2023-12-07T10:21:01;2.60;99.90
46364;DHT22;32071;49.036;9.344;2023-12-07T10:23:28;2.70;99.90
46364;DHT22;32071;49.036;9.344;2023-12-07T10:25:58;2.80;99.90
46364;DHT22;32071;49.036;9.344;2023-12-07T10:28:24;2.90;99.90
46364;DHT22;32071;49.036;9.344;2023-12-07T10:30:50;2.90;99.90
46364;DHT22;32071;49.036;9.344;2023-12-07T10:33:16;3.00;99.90
46364;DHT22;32071;49.036;9.344;2023-12-07T10:35:42;3.00;99.90
46364;DHT22;32071;49.036;9.344;2023-12-07T10:38:09;3.10;99.90
46364;DHT22;32071;49.036;9.344;2023-12-07T10:40:34;3.20;99.90
46364;DHT22;32071;49.036;9.344;2023-12-07T10:43:04;3.30;99.90
46364;DHT22;32071;49.036;9.344;2023-12-07T10:45:30;3.40;99.90
46364;DHT22;32071;49.036;9.344;2023-12-07T10:48:03;3.50;99.90
46364;DHT22;32071;49.036;9.344;2023-12-07T10:50:37;3.50;99.90
46364;DHT22;32071;49.036;9.344;2023-12-07T10:55:58;3.60;99.90
46364;DHT22;32071;49.036;9.344;2023-12-07T10:58:25;3.70;99.90
46364;DHT22;32071;49.036;9.344;2023-12-07T11:00:55;3.70;99.90
46364;DHT22;32071;49.036;9.344;2023-12-07T11:03:22;3.80;99.90
46364;DHT22;32071;49.036;9.344;2023-12-07T11:05:48;3.80;99.90
46364;DHT22;32071;49.036;9.344;2023-12-07T11:08:32;3.90;99.90
46364;DHT22;32071;49.036;9.344;2023-12-07T11:11:20;3.90;99.90
46364;DHT22;32071;49.036;9.344;2023-12-07T11:14:14;4.00;99.90
46364;DHT22;32071;49.036;9.344;2023-12-07T11:16:43;4.10;99.90
46364;DHT22;32071;49.036;9.344;2023-12-07T11:22:05;4.20;99.90
46364;DHT22;32071;49.036;9.344;2023-12-07T11:24:31;4.30;99.90
46364;DHT22;32071;49.036;9.344;2023-12-07T11:26:57;4.30;99.90
46364;DHT22;32071;49.036;9.344;2023-12-07T11:29:28;4.30;99.90
46364;DHT22;32071;49.036;9.344;2023-12-07T11:32:04;4.30;99.90
46364;DHT22;32071;49.036;9.344;2023-12-07T11:34:40;4.40;99.90
46364;DHT22;32071;49.036;9.344;2023-12-07T11:37:07;4.40;99.90
46364;DHT22;32071;49.036;9.344;2023-12-07T11:39:37;4.40;99.90
46364;DHT22;32071;49.036;9.344;2023-12-07T11:42:20;4.50;99.90
46364;DHT22;32071;49.036;9.344;2023-12-07T11:44:50;4.50;99.90
46364;DHT22;32071;49.036;9.344;2023-12-07T11:47:17;4.50;99.90
46364;DHT22;32071;49.036;9.344;2023-12-07T11:49:43;4.50;99.90
46364;DHT22;32071;49.036;9.344;2023-12-07T11:52:16;4.60;99.90
46364;DHT22;32071;49.036;9.344;2023-12-07T11:54:44;4.70;99.90
46364;DHT22;32071;49.036;9.344;2023-12-07T11:57:10;4.70;99.90
46364;DHT22;32071;49.036;9.344;2023-12-07T11:59:35;4.80;99.90
46364;DHT22;32071;49.036;9.344;2023-12-07T12:02:01;4.80;99.90
46364;DHT22;32071;49.036;9.344;2023-12-07T12:04:29;4.90;99.90
46364;DHT22;32071;49.036;9.344;2023-12-07T12:06:55;4.90;99.90
46364;DHT22;32071;49.036;9.344;2023-12-07T12:09:20;4.90;99.90
46364;DHT22;32071;49.036;9.344;2023-12-07T12:11:49;4.90;99.90
46364;DHT22;32071;49.036;9.344;2023-12-07T12:14:18;4.90;99.90
46364;DHT22;32071;49.036;9.344;2023-12-07T12:16:47;4.90;99.90
46364;DHT22;32071;49.036;9.344;2023-12-07T12:19:13;5.00;99.90
46364;DHT22;32071;49.036;9.344;2023-12-07T12:21:42;5.00;99.90
46364;DHT22;32071;49.036;9.344;2023-12-07T12:24:10;5.00;99.90
46364;DHT22;32071;49.036;9.344;2023-12-07T12:26:37;5.00;99.90
46364;DHT22;32071;49.036;9.344;2023-12-07T12:29:04;5.00;99.90
46364;DHT22;32071;49.036;9.344;2023-12-07T12:31:29;5.10;99.90
46364;DHT22;32071;49.036;9.344;2023-12-07T12:33:55;5.10;99.90
46364;DHT22;32071;49.036;9.344;2023-12-07T12:36:21;5.10;99.90
46364;DHT22;32071;49.036;9.344;2023-12-07T12:38:49;5.10;99.90
46364;DHT22;32071;49.036;9.344;2023-12-07T12:41:25;5.10;99.90
46364;DHT22;32071;49.036;9.344;2023-12-07T12:43:51;5.10;99.90
46364;DHT22;32071;49.036;9.344;2023-12-07T12:46:17;5.10;99.90
46364;DHT22;32071;49.036;9.344;2023-12-07T12:48:57;5.10;99.90
46364;DHT22;32071;49.036;9.344;2023-12-07T12:51:30;5.10;99.90
46364;DHT22;32071;49.036;9.344;2023-12-07T12:54:00;5.00;99.90
46364;DHT22;32071;49.036;9.344;2023-12-07T12:56:27;5.00;99.90
46364;DHT22;32071;49.036;9.344;2023-12-07T12:58:53;5.00;99.90
46364;DHT22;32071;49.036;9.344;2023-12-07T13:01:23;5.00;99.90
46364;DHT22;32071;49.036;9.344;2023-12-07T13:03:48;4.90;99.90
46364;DHT22;32071;49.036;9.344;2023-12-07T13:06:15;4.90;99.90
46364;DHT22;32071;49.036;9.344;2023-12-07T13:08:44;4.90;99.90
46364;DHT22;32071;49.036;9.344;2023-12-07T13:11:18;4.90;99.90
46364;DHT22;32071;49.036;9.344;2023-12-07T13:13:45;4.80;99.90
46364;DHT22;32071;49.036;9.344;2023-12-07T13:16:12;4.80;99.90
46364;DHT22;32071;49.036;9.344;2023-12-07T13:18:40;4.80;99.90
46364;DHT22;32071;49.036;9.344;2023-12-07T13:21:05;4.90;99.90
46364;DHT22;32071;49.036;9.344;2023-12-07T13:23:31;4.90;99.90
46364;DHT22;32071;49.036;9.344;2023-12-07T13:25:57;4.90;99.90
46364;DHT22;32071;49.036;9.344;2023-12-07T13:28:22;5.00;99.90
46364;DHT22;32071;49.036;9.344;2023-12-07T13:30:48;5.00;99.90
46364;DHT22;32071;49.036;9.344;2023-12-07T13:33:14;5.00;99.90
46364;DHT22;32071;49.036;9.344;2023-12-07T13:35:39;5.10;99.90
46364;DHT22;32071;49.036;9.344;2023-12-07T13:38:05;5.10;99.90
46364;DHT22;32071;49.036;9.344;2023-12-07T13:40:30;5.10;99.90
46364;DHT22;32071;49.036;9.344;2023-12-07T13:42:56;5.10;99.90
46364;DHT22;32071;49.036;9.344;2023-12-07T13:45:22;5.10;99.90
46364;DHT22;32071;49.036;9.344;2023-12-07T13:47:47;5.10;99.90
46364;DHT22;32071;49.036;9.344;2023-12-07T13:50:13;5.00;99.90
46364;DHT22;32071;49.036;9.344;2023-12-07T13:52:39;5.00;99.90
46364;DHT22;32071;49.036;9.344;2023-12-07T13:55:05;4.90;99.90
46364;DHT22;32071;49.036;9.344;2023-12-07T13:57:31;4.90;99.90
46364;DHT22;32071;49.036;9.344;2023-12-07T13:59:56;4.90;99.90
46364;DHT22;32071;49.036;9.344;2023-12-07T14:02:22;4.90;99.90
46364;DHT22;32071;49.036;9.344;2023-12-07T14:04:49;4.90;99.90
46364;DHT22;32071;49.036;9.344;2023-12-07T14:07:17;5.00;99.90
46364;DHT22;32071;49.036;9.344;2023-12-07T14:09:44;5.00;99.90
46364;DHT22;32071;49.036;9.344;2023-12-07T14:12:10;5.00;99.90
46364;DHT22;32071;49.036;9.344;2023-12-07T14:14:41;5.00;99.90
46364;DHT22;32071;49.036;9.344;2023-12-07T14:17:08;4.90;99.90
46364;DHT22;32071;49.036;9.344;2023-12-07T14:19:34;4.80;99.90
46364;DHT22;32071;49.036;9.344;2023-12-07T14:22:00;4.80;99.90
46364;DHT22;32071;49.036;9.344;2023-12-07T14:24:26;4.70;99.90
46364;DHT22;32071;49.036;9.344;2023-12-07T14:26:53;4.60;99.90
46364;DHT22;32071;49.036;9.344;2023-12-07T14:29:19;4.50;99.90
46364;DHT22;32071;49.036;9.344;2023-12-07T14:31:47;4.50;99.90
46364;DHT22;32071;49.036;9.344;2023-12-07T14:34:14;4.40;99.90
46364;DHT22;32071;49.036;9.344;2023-12-07T14:36:40;4.30;99.90
46364;DHT22;32071;49.036;9.344;2023-12-07T14:39:07;4.10;99.90
46364;DHT22;32071;49.036;9.344;2023-12-07T14:41:33;4.00;99.90
46364;DHT22;32071;49.036;9.344;2023-12-07T14:43:59;3.90;99.90
46364;DHT22;32071;49.036;9.344;2023-12-07T14:46:24;3.70;99.90
46364;DHT22;32071;49.036;9.344;2023-12-07T14:48:50;3.50;99.90
46364;DHT22;32071;49.036;9.344;2023-12-07T14:51:20;3.40;99.90
46364;DHT22;32071;49.036;9.344;2023-12-07T14:53:47;3.20;99.90
46364;DHT22;32071;49.036;9.344;2023-12-07T14:56:12;3.10;99.90
46364;DHT22;32071;49.036;9.344;2023-12-07T14:58:38;3.10;99.90
46364;DHT22;32071;49.036;9.344;2023-12-07T15:01:06;3.00;99.90
46364;DHT22;32071;49.036;9.344;2023-12-07T15:03:31;2.80;99.90
46364;DHT22;32071;49.036;9.344;2023-12-07T15:05:57;2.70;99.90
46364;DHT22;32071;49.036;9.344;2023-12-07T15:08:22;2.60;99.90
46364;DHT22;32071;49.036;9.344;2023-12-07T15:10:48;2.50;99.90
46364;DHT22;32071;49.036;9.344;2023-12-07T15:13:17;2.40;99.90
46364;DHT22;32071;49.036;9.344;2023-12-07T15:15:43;2.40;99.90
46364;DHT22;32071;49.036;9.344;2023-12-07T15:18:09;2.40;99.90
46364;DHT22;32071;49.036;9.344;2023-12-07T15:20:35;2.30;99.90
46364;DHT22;32071;49.036;9.344;2023-12-07T15:23:01;2.20;99.90
46364;DHT22;32071;49.036;9.344;2023-12-07T15:25:27;2.20;99.90
46364;DHT22;32071;49.036;9.344;2023-12-07T15:27:54;2.10;99.90
46364;DHT22;32071;49.036;9.344;2023-12-07T15:30:20;1.90;99.90
46364;DHT22;32071;49.036;9.344;2023-12-07T15:32:49;1.80;99.90
46364;DHT22;32071;49.036;9.344;2023-12-07T15:35:15;1.70;99.90
46364;DHT22;32071;49.036;9.344;2023-12-07T15:37:41;1.60;99.90
46364;DHT22;32071;49.036;9.344;2023-12-07T15:40:07;1.60;99.90
46364;DHT22;32071;49.036;9.344;2023-12-07T15:42:36;1.50;99.90
46364;DHT22;32071;49.036;9.344;2023-12-07T15:45:03;1.40;99.90
46364;DHT22;32071;49.036;9.344;2023-12-07T15:47:29;1.40;99.90
46364;DHT22;32071;49.036;9.344;2023-12-07T15:49:54;1.30;99.90
46364;DHT22;32071;49.036;9.344;2023-12-07T15:52:20;1.20;99.90
46364;DHT22;32071;49.036;9.344;2023-12-07T15:54:46;1.10;99.90
46364;DHT22;32071;49.036;9.344;2023-12-07T15:57:11;1.10;99.90